Time;durP1;ratioP1;P1;durP2;ratioP2;P2;SDS_P1;SDS_P2;PMS_P1;PMS_P2;Temp;Humidity;BMP_temperature;BMP_pressure;BME280_temperature;BME280_humidity;BME280_pressure;Samples;Min_cycle;Max_cycle;Signal;HPM_P1;HPM_P2
2021/10/25 00:01:00;;;;;;;11.88;7.00;;;3.30;99.90;;;;;;4953139;29;20462;-70
2021/10/25 00:03:28;;;;;;;13.65;7.07;;;3.20;99.90;;;;;;4954144;28;20506;-70
2021/10/25 00:05:56;;;;;;;12.95;7.75;;;3.20;99.90;;;;;;4953285;28;20557;-70
2021/10/25 00:08:23;;;;;;;11.77;6.95;;;3.20;99.90;;;;;;4960526;28;20043;-70
2021/10/25 00:10:51;;;;;;;12.77;7.38;;;3.20;99.90;;;;;;4955071;28;20510;-70
2021/10/25 00:13:18;;;;;;;12.88;7.25;;;3.20;99.90;;;;;;4943459;29;20047;-70
2021/10/25 00:15:46;;;;;;;13.85;6.93;;;3.10;99.90;;;;;;4954967;28;20043;-68
2021/10/25 00:18:13;;;;;;;13.30;7.43;;;3.10;99.90;;;;;;4952123;28;20046;-68
2021/10/25 00:20:40;;;;;;;10.25;6.68;;;3.10;99.90;;;;;;4957722;28;20082;-69
2021/10/25 00:23:08;;;;;;;15.57;7.57;;;3.10;99.90;;;;;;4953533;29;20492;-69
2021/10/25 00:25:35;;;;;;;10.35;6.72;;;3.10;99.90;;;;;;4954384;29;20466;-68
2021/10/25 00:28:03;;;;;;;13.18;7.45;;;3.10;99.90;;;;;;4938940;28;20055;-69
2021/10/25 00:30:30;;;;;;;12.68;6.75;;;3.00;99.90;;;;;;4953206;28;20384;-69
2021/10/25 00:32:57;;;;;;;16.08;7.63;;;3.00;99.90;;;;;;4961332;28;20039;-69
2021/10/25 00:35:24;;;;;;;12.43;6.97;;;3.00;99.90;;;;;;4952821;28;20050;-69
2021/10/25 00:37:52;;;;;;;16.08;7.32;;;3.00;99.90;;;;;;4939231;29;20039;-69
2021/10/25 00:40:20;;;;;;;15.02;8.02;;;3.00;99.90;;;;;;4954311;28;20047;-69
2021/10/25 00:42:47;;;;;;;12.05;6.70;;;3.00;99.90;;;;;;4950970;29;20047;-69
2021/10/25 00:45:17;;;;;;;12.35;6.85;;;3.00;99.90;;;;;;4953134;28;20543;-69
2021/10/25 00:47:45;;;;;;;12.00;7.13;;;3.00;99.90;;;;;;4951542;28;20518;-69
2021/10/25 00:50:12;;;;;;;14.18;7.20;;;2.90;99.90;;;;;;4953287;29;20106;-69
2021/10/25 00:52:42;;;;;;;13.30;6.63;;;3.00;99.90;;;;;;4940039;29;20081;-69
2021/10/25 00:55:11;;;;;;;10.82;6.90;;;2.90;99.90;;;;;;4953168;29;20098;-69
2021/10/25 00:57:38;;;;;;;14.88;7.43;;;2.90;99.90;;;;;;4952392;28;20047;-69
2021/10/25 01:00:08;;;;;;;15.55;7.32;;;2.90;99.90;;;;;;4947794;29;20146;-69
2021/10/25 01:02:36;;;;;;;12.23;7.18;;;2.90;99.90;;;;;;4953876;28;20525;-69
2021/10/25 01:05:05;;;;;;;11.88;6.78;;;2.90;99.90;;;;;;4952929;29;20055;-69
2021/10/25 01:07:33;;;;;;;11.82;7.38;;;2.90;99.90;;;;;;4951230;28;20118;-69
2021/10/25 01:10:04;;;;;;;13.18;6.93;;;2.90;99.90;;;;;;4950116;29;20043;-69
2021/10/25 01:12:32;;;;;;;11.95;6.63;;;2.90;99.90;;;;;;4949865;28;20413;-69
2021/10/25 01:14:59;;;;;;;11.50;7.10;;;2.80;99.90;;;;;;4945973;29;20063;-69
2021/10/25 01:17:27;;;;;;;14.30;7.43;;;2.80;99.90;;;;;;4952436;28;20057;-69
2021/10/25 01:19:56;;;;;;;11.05;7.07;;;2.80;99.90;;;;;;4956435;28;20034;-69
2021/10/25 01:22:23;;;;;;;12.98;6.88;;;2.80;99.90;;;;;;4954917;28;20454;-69
2021/10/25 01:24:52;;;;;;;12.07;6.68;;;2.80;99.90;;;;;;4935629;29;20085;-69
2021/10/25 01:27:20;;;;;;;13.40;7.75;;;2.80;99.90;;;;;;4952605;29;20082;-69
2021/10/25 01:29:54;;;;;;;11.13;6.63;;;2.80;99.90;;;;;;4944583;29;20122;-69
2021/10/25 01:32:22;;;;;;;13.52;7.20;;;2.80;99.90;;;;;;4952870;28;20053;-69
2021/10/25 01:34:49;;;;;;;12.07;6.97;;;2.70;99.90;;;;;;4934237;28;20051;-69
2021/10/25 01:37:17;;;;;;;11.50;6.90;;;2.70;99.90;;;;;;4950487;28;20035;-69
2021/10/25 01:39:46;;;;;;;11.70;7.45;;;2.70;99.90;;;;;;4959711;28;20075;-69
2021/10/25 01:42:14;;;;;;;12.18;7.05;;;2.70;99.90;;;;;;4942516;28;20442;-69
2021/10/25 01:44:42;;;;;;;13.52;6.55;;;2.70;99.90;;;;;;4960465;28;20047;-69
2021/10/25 01:47:10;;;;;;;13.80;7.35;;;2.60;99.90;;;;;;4938023;29;20055;-69
2021/10/25 01:49:38;;;;;;;13.18;7.45;;;2.60;99.90;;;;;;4950978;28;20031;-69
2021/10/25 01:52:06;;;;;;;14.25;6.70;;;2.60;99.90;;;;;;4945788;28;20446;-69
2021/10/25 01:54:40;;;;;;;12.25;7.07;;;2.60;99.90;;;;;;4948632;29;20438;-69
2021/10/25 01:57:08;;;;;;;10.23;7.03;;;2.60;99.90;;;;;;4948522;29;20063;-69
2021/10/25 01:59:36;;;;;;;13.77;7.70;;;2.70;99.90;;;;;;4924985;29;20410;-69
2021/10/25 02:02:03;;;;;;;13.35;7.40;;;2.70;99.90;;;;;;4952168;29;20055;-69
2021/10/25 02:04:31;;;;;;;16.25;7.22;;;2.60;99.90;;;;;;4938528;29;20118;-69
2021/10/25 02:06:59;;;;;;;15.07;7.15;;;2.60;99.90;;;;;;4948467;28;20047;-69
2021/10/25 02:09:27;;;;;;;15.10;8.35;;;2.60;99.90;;;;;;4946422;29;20039;-69
2021/10/25 02:11:55;;;;;;;15.80;7.70;;;2.60;99.90;;;;;;4935900;29;20059;-68
2021/10/25 02:14:22;;;;;;;15.00;7.50;;;2.60;99.90;;;;;;4954766;28;20047;-69
2021/10/25 02:16:51;;;;;;;13.95;6.97;;;2.60;99.90;;;;;;4935365;29;20130;-69
2021/10/25 02:19:18;;;;;;;14.35;7.38;;;2.60;99.90;;;;;;4945497;28;20470;-69
2021/10/25 02:22:08;;;;;;;15.20;6.90;;;2.60;99.90;;;;;;4950187;28;20047;-69
2021/10/25 02:24:36;;;;;;;13.82;7.75;;;2.60;99.90;;;;;;4916907;28;20126;-69
2021/10/25 02:27:04;;;;;;;14.10;7.10;;;2.60;99.90;;;;;;4944324;28;20766;-68
2021/10/25 02:29:38;;;;;;;11.57;7.25;;;2.60;99.90;;;;;;4950717;28;20066;-68
2021/10/25 02:32:15;;;;;;;13.25;7.90;;;2.60;99.90;;;;;;4950513;28;20130;-69
2021/10/25 02:34:45;;;;;;;14.55;7.22;;;2.60;99.90;;;;;;4938154;28;20119;-69
2021/10/25 02:37:15;;;;;;;16.58;7.57;;;2.50;99.90;;;;;;4949528;28;20035;-69
2021/10/25 02:39:43;;;;;;;15.52;7.30;;;2.60;99.90;;;;;;4963509;28;20415;-69
2021/10/25 02:42:11;;;;;;;16.23;8.18;;;2.50;99.90;;;;;;4946743;29;20540;-69
2021/10/25 02:44:39;;;;;;;12.90;7.30;;;2.50;99.90;;;;;;4957201;28;20138;-69
2021/10/25 02:47:09;;;;;;;13.43;8.10;;;2.50;99.90;;;;;;4950754;29;20502;-69
2021/10/25 02:49:37;;;;;;;12.60;7.53;;;2.50;99.90;;;;;;4950008;28;20035;-68
2021/10/25 02:52:05;;;;;;;14.20;7.78;;;2.40;99.90;;;;;;4950745;28;20046;-68
2021/10/25 02:54:35;;;;;;;16.95;7.85;;;2.50;99.90;;;;;;4950412;28;20102;-68
2021/10/25 02:57:03;;;;;;;18.45;7.43;;;2.40;99.90;;;;;;4954683;28;20074;-69
2021/10/25 02:59:33;;;;;;;14.35;7.38;;;2.40;99.90;;;;;;4956338;28;20098;-69
2021/10/25 03:02:03;;;;;;;13.32;7.75;;;2.40;99.90;;;;;;4956264;28;20440;-69
2021/10/25 03:04:30;;;;;;;12.75;6.80;;;2.40;99.90;;;;;;4955623;28;20143;-69
2021/10/25 03:06:58;;;;;;;15.18;7.65;;;2.40;99.90;;;;;;4956504;28;20090;-69
2021/10/25 03:09:25;;;;;;;11.98;6.93;;;2.40;99.90;;;;;;4956582;28;20039;-69
2021/10/25 03:11:53;;;;;;;15.20;7.57;;;2.40;99.90;;;;;;4954590;29;20346;-69
2021/10/25 03:14:20;;;;;;;21.00;8.50;;;2.40;99.90;;;;;;4955570;28;20042;-69
2021/10/25 03:16:55;;;;;;;14.77;8.43;;;2.40;99.90;;;;;;4953835;28;20451;-68
2021/10/25 03:19:23;;;;;;;13.65;7.05;;;2.50;99.90;;;;;;4960500;28;20047;-69
2021/10/25 03:21:52;;;;;;;15.73;7.53;;;2.50;99.90;;;;;;4949448;28;20051;-69
2021/10/25 03:24:20;;;;;;;13.48;7.10;;;2.60;99.90;;;;;;4949057;28;20657;-69
2021/10/25 03:26:47;;;;;;;14.05;6.93;;;2.60;99.90;;;;;;4946056;29;20417;-69
2021/10/25 03:29:16;;;;;;;13.95;6.68;;;2.70;99.90;;;;;;4940292;29;20059;-69
2021/10/25 03:31:43;;;;;;;11.18;6.80;;;2.70;99.90;;;;;;4931058;29;20074;-69
2021/10/25 03:34:10;;;;;;;16.83;7.78;;;2.70;99.90;;;;;;4958467;28;20123;-69
2021/10/25 03:36:39;;;;;;;14.15;7.38;;;2.70;99.90;;;;;;4939498;29;20071;-68
2021/10/25 03:39:07;;;;;;;15.82;7.35;;;2.70;99.90;;;;;;4960935;28;20137;-69
2021/10/25 03:41:45;;;;;;;15.05;6.85;;;2.70;99.90;;;;;;4955128;28;20501;-69
2021/10/25 03:44:17;;;;;;;16.60;8.32;;;2.70;99.90;;;;;;4956809;28;20045;-69
2021/10/25 03:46:49;;;;;;;12.73;7.70;;;2.70;99.90;;;;;;4938476;29;20063;-69
2021/10/25 03:52:53;;;;;;;12.68;7.88;;;2.70;99.90;;;;;;4921287;28;20058;-68
2021/10/25 03:55:33;;;;;;;14.80;8.27;;;2.70;99.90;;;;;;4936855;29;20047;-69
2021/10/25 04:26:28;;;;;;;18.13;8.70;;;2.60;99.90;;;;;;4929084;29;20626;-69
2021/10/25 04:28:55;;;;;;;13.90;7.90;;;2.50;99.90;;;;;;4942233;28;20392;-69
2021/10/25 04:31:23;;;;;;;16.98;7.72;;;2.50;99.90;;;;;;4938132;29;20482;-69
2021/10/25 04:33:57;;;;;;;16.63;7.72;;;2.50;99.90;;;;;;4962326;28;20553;-69
2021/10/25 04:36:43;;;;;;;14.57;7.97;;;2.40;99.90;;;;;;4950345;28;20039;-69
2021/10/25 04:39:36;;;;;;;14.02;8.10;;;2.40;99.90;;;;;;4951966;29;20510;-69
2021/10/25 04:42:12;;;;;;;15.25;8.02;;;2.40;99.90;;;;;;4950332;28;20043;-69
2021/10/25 04:44:40;;;;;;;19.30;9.30;;;2.30;99.90;;;;;;4952507;28;20047;-69
2021/10/25 04:47:08;;;;;;;17.75;9.02;;;2.30;99.90;;;;;;4947018;28;20043;-69
2021/10/25 04:49:35;;;;;;;23.23;10.27;;;2.30;99.90;;;;;;4955154;28;20059;-67
2021/10/25 04:52:22;;;;;;;17.45;8.73;;;2.30;99.90;;;;;;4946309;28;20059;-69
2021/10/25 04:54:50;;;;;;;13.30;8.77;;;2.30;99.90;;;;;;4949158;28;20039;-69
2021/10/25 04:57:17;;;;;;;17.95;8.63;;;2.30;99.90;;;;;;4953979;29;20042;-70
2021/10/25 04:59:45;;;;;;;19.58;10.18;;;2.30;99.90;;;;;;4944386;29;20490;-70
2021/10/25 05:02:12;;;;;;;18.67;10.55;;;2.30;99.90;;;;;;4944877;28;20050;-68
2021/10/25 05:04:42;;;;;;;20.30;10.73;;;2.20;99.90;;;;;;4938829;28;20541;-69
2021/10/25 05:07:09;;;;;;;18.23;9.95;;;2.30;99.90;;;;;;4944076;29;20046;-70
2021/10/25 05:09:37;;;;;;;18.75;9.95;;;2.20;99.90;;;;;;4953566;29;20038;-70
2021/10/25 05:12:04;;;;;;;17.00;9.50;;;2.30;99.90;;;;;;4944497;29;20454;-71
2021/10/25 05:14:32;;;;;;;16.30;8.32;;;2.20;99.90;;;;;;4946894;28;20139;-70
2021/10/25 05:17:01;;;;;;;19.50;9.18;;;2.20;99.90;;;;;;4951630;28;20480;-70
2021/10/25 05:19:28;;;;;;;18.27;8.75;;;2.20;99.90;;;;;;4947076;28;20468;-69
2021/10/25 05:22:19;;;;;;;15.88;8.02;;;2.20;99.90;;;;;;4948852;29;20055;-70
2021/10/25 05:24:47;;;;;;;18.00;8.82;;;2.20;99.90;;;;;;4946973;29;20131;-70
2021/10/25 05:27:16;;;;;;;14.52;7.95;;;2.20;99.90;;;;;;4936708;29;20043;-70
2021/10/25 05:29:43;;;;;;;16.35;9.00;;;2.20;99.90;;;;;;4942000;28;20494;-70
2021/10/25 05:32:10;;;;;;;13.45;8.52;;;2.30;99.90;;;;;;4962479;28;20063;-70
2021/10/25 05:34:38;;;;;;;15.82;8.52;;;2.30;99.90;;;;;;4960608;28;20058;-70
2021/10/25 05:37:06;;;;;;;16.45;9.10;;;2.30;99.90;;;;;;4953409;29;20079;-70
2021/10/25 05:39:34;;;;;;;15.93;9.15;;;2.30;99.90;;;;;;4928799;29;20170;-69
2021/10/25 05:42:06;;;;;;;16.02;9.27;;;2.40;99.90;;;;;;4939619;29;20080;-69
2021/10/25 05:44:35;;;;;;;22.50;10.85;;;2.40;99.90;;;;;;4949111;28;20043;-69
2021/10/25 05:47:02;;;;;;;16.33;9.35;;;2.40;99.90;;;;;;4947857;28;20394;-70
2021/10/25 05:49:30;;;;;;;17.40;9.68;;;2.40;99.90;;;;;;4937503;29;20122;-71
2021/10/25 05:51:58;;;;;;;21.05;9.57;;;2.40;99.90;;;;;;4933091;29;20047;-69
2021/10/25 05:54:26;;;;;;;20.50;9.68;;;2.50;99.90;;;;;;4947473;29;20094;-69
2021/10/25 05:57:00;;;;;;;17.58;9.15;;;2.50;99.90;;;;;;4932152;28;20415;-69
2021/10/25 05:59:30;;;;;;;17.20;9.25;;;2.50;99.90;;;;;;4942871;28;20043;-69
2021/10/25 06:02:14;;;;;;;20.00;9.30;;;2.50;99.90;;;;;;4932841;29;20775;-70
2021/10/25 06:04:44;;;;;;;14.98;8.73;;;2.50;99.90;;;;;;4936473;29;20050;-70
2021/10/25 06:07:24;;;;;;;15.88;8.82;;;2.50;99.90;;;;;;4957012;28;20080;-70
2021/10/25 06:09:51;;;;;;;16.70;8.75;;;2.50;99.90;;;;;;4938163;28;20122;-70
2021/10/25 06:12:19;;;;;;;18.58;9.40;;;2.50;99.90;;;;;;4935614;29;20062;-69
2021/10/25 06:15:22;;;;;;;20.33;9.65;;;2.50;99.90;;;;;;4930318;29;20048;-69
2021/10/25 06:20:26;;;;;;;17.27;9.10;;;2.60;99.90;;;;;;4925540;29;20519;-70
2021/10/25 06:22:55;;;;;;;16.50;9.68;;;2.60;99.90;;;;;;4951737;28;20051;-70
2021/10/25 06:25:25;;;;;;;21.40;8.70;;;2.70;99.90;;;;;;4935501;29;20066;-70
2021/10/25 06:28:09;;;;;;;17.02;9.15;;;2.70;99.90;;;;;;4936342;29;20565;-71
2021/10/25 06:30:41;;;;;;;19.83;9.23;;;2.80;99.90;;;;;;4925534;28;20051;-70
2021/10/25 06:33:14;;;;;;;21.90;10.90;;;2.80;99.90;;;;;;4948434;28;20043;-71
2021/10/25 06:36:04;;;;;;;17.95;9.55;;;2.90;99.90;;;;;;4939865;29;20047;-70
2021/10/25 06:41:20;;;;;;;17.05;9.07;;;3.10;99.90;;;;;;4958379;28;20039;-70
2021/10/25 06:43:50;;;;;;;20.87;9.17;;;3.20;99.90;;;;;;4941209;29;20047;-70
2021/10/25 06:46:19;;;;;;;16.35;9.20;;;3.30;99.90;;;;;;4949003;28;20402;-71
2021/10/25 06:48:49;;;;;;;15.52;9.18;;;3.40;99.90;;;;;;4942389;29;20035;-71
2021/10/25 06:51:18;;;;;;;13.65;8.88;;;3.50;99.90;;;;;;4943137;29;20561;-71
2021/10/25 06:53:46;;;;;;;17.30;8.85;;;3.70;99.90;;;;;;4939148;29;20035;-71
2021/10/25 06:56:15;;;;;;;18.52;8.88;;;3.80;99.90;;;;;;4939749;29;20050;-70
2021/10/25 06:58:43;;;;;;;14.60;8.57;;;3.90;99.90;;;;;;4937113;28;20047;-70
2021/10/25 07:01:11;;;;;;;15.32;8.30;;;4.10;99.90;;;;;;4943013;29;20043;-70
2021/10/25 07:03:41;;;;;;;20.60;9.93;;;4.20;99.90;;;;;;4942942;29;20047;-70
2021/10/25 07:06:14;;;;;;;19.48;9.60;;;4.40;99.90;;;;;;4963099;28;20058;-70
2021/10/25 07:08:44;;;;;;;21.40;9.65;;;4.50;99.90;;;;;;4939551;29;20050;-70
2021/10/25 07:11:15;;;;;;;14.50;9.25;;;4.70;99.90;;;;;;4942979;28;20838;-70
2021/10/25 07:13:47;;;;;;;16.10;9.32;;;4.80;99.90;;;;;;4932255;29;20066;-70
2021/10/25 07:16:22;;;;;;;18.73;9.10;;;4.90;99.90;;;;;;4944836;29;20058;-70
2021/10/25 07:21:52;;;;;;;20.65;9.85;;;5.20;99.90;;;;;;4939801;28;20573;-71
2021/10/25 08:07:13;;;;;;;18.38;9.98;;;6.40;99.90;;;;;;4919743;29;20056;-69
2021/10/25 08:10:10;;;;;;;16.83;10.07;;;6.40;99.90;;;;;;4908790;29;20115;-69
2021/10/25 08:12:45;;;;;;;16.23;9.30;;;6.50;99.90;;;;;;4920324;29;20095;-70
2021/10/25 08:15:21;;;;;;;16.48;9.88;;;6.50;99.90;;;;;;4905136;29;20082;-70
2021/10/25 08:17:54;;;;;;;18.80;10.48;;;6.70;99.90;;;;;;4902407;29;20047;-69
2021/10/25 08:20:22;;;;;;;16.67;10.60;;;6.80;99.90;;;;;;4916428;29;20052;-69
2021/10/25 08:22:49;;;;;;;25.65;14.05;;;6.90;99.90;;;;;;4902527;29;20070;-69
2021/10/25 08:25:16;;;;;;;18.02;10.68;;;7.00;99.90;;;;;;4919855;29;20083;-70
2021/10/25 08:28:10;;;;;;;16.25;10.13;;;7.10;99.90;;;;;;4916355;29;20063;-70
2021/10/25 08:30:39;;;;;;;17.58;10.20;;;7.20;99.90;;;;;;4907409;29;20196;-69
2021/10/25 08:41:30;;;;;;;19.42;10.65;;;7.40;99.90;;;;;;4948120;28;20050;-69
2021/10/25 08:43:59;;;;;;;20.17;10.85;;;7.50;99.90;;;;;;4953690;28;20078;-71
2021/10/25 08:46:29;;;;;;;19.08;11.30;;;7.50;99.90;;;;;;4939031;29;20557;-71
2021/10/25 08:49:02;;;;;;;16.95;10.48;;;7.50;99.90;;;;;;4938606;28;20517;-70
2021/10/25 08:51:32;;;;;;;;;;;7.60;99.90;;;;;;4935399;29;20071;-70
2021/10/25 08:54:03;;;;;;;16.40;10.27;;;7.80;99.90;;;;;;4935386;29;20405;-70
2021/10/25 08:56:31;;;;;;;20.15;11.25;;;7.90;99.90;;;;;;4935365;29;20039;-71
2021/10/25 08:59:08;;;;;;;17.10;10.13;;;8.00;99.90;;;;;;4947682;28;20045;-70
2021/10/25 09:01:40;;;;;;;19.92;12.00;;;8.10;99.90;;;;;;4937760;29;20055;-71
2021/10/25 09:04:19;;;;;;;22.05;12.02;;;8.30;99.90;;;;;;4951882;29;20054;-70
2021/10/25 09:07:00;;;;;;;23.48;12.65;;;8.40;99.90;;;;;;4935829;29;20044;-70
2021/10/25 09:09:30;;;;;;;20.65;11.20;;;8.60;99.90;;;;;;4953601;28;20051;-71
2021/10/25 09:12:07;;;;;;;17.63;11.35;;;8.90;99.90;;;;;;4951913;29;20055;-70
2021/10/25 09:14:57;;;;;;;20.65;10.70;;;9.20;99.90;;;;;;4956507;28;20043;-71
2021/10/25 09:17:27;;;;;;;19.92;11.52;;;9.40;99.90;;;;;;4949599;28;20035;-70
2021/10/25 09:20:07;;;;;;;17.02;10.07;;;9.70;99.90;;;;;;4944642;29;20074;-71
2021/10/25 09:22:36;;;;;;;19.40;10.88;;;9.90;99.90;;;;;;4952910;28;20051;-70
2021/10/25 09:25:04;;;;;;;17.65;11.23;;;10.10;99.90;;;;;;4935154;29;20121;-71
2021/10/25 09:27:45;;;;;;;18.23;10.60;;;10.20;99.90;;;;;;4950830;28;20139;-71
2021/10/25 09:30:39;;;;;;;15.70;10.10;;;10.40;99.90;;;;;;4948708;29;20101;-71
2021/10/25 09:33:08;;;;;;;17.77;10.82;;;10.60;99.90;;;;;;4935547;28;20051;-72
2021/10/25 09:36:03;;;;;;;17.00;10.43;;;10.80;99.90;;;;;;4943663;29;20498;-72
2021/10/25 09:49:59;;;;;;;14.77;10.85;;;12.00;99.90;;;;;;4949178;28;20422;-70
2021/10/25 09:52:38;;;;;;;17.80;10.30;;;12.10;99.90;;;;;;4938098;29;20054;-70
2021/10/25 09:55:15;;;;;;;18.98;11.27;;;12.30;99.90;;;;;;4923529;29;20062;-70
2021/10/25 10:00:36;;;;;;;20.67;10.75;;;12.90;99.90;;;;;;4947357;28;20100;-70
2021/10/25 10:03:04;;;;;;;17.33;10.27;;;13.30;99.90;;;;;;4930156;29;20505;-71
2021/10/25 10:05:55;;;;;;;15.77;9.23;;;13.40;99.90;;;;;;4941484;29;20059;-69
2021/10/25 10:08:27;;;;;;;15.00;10.40;;;13.50;99.90;;;;;;4936480;28;20044;-70
2021/10/25 10:10:56;;;;;;;21.90;10.90;;;13.60;99.90;;;;;;4960223;28;20051;-69
2021/10/25 10:13:26;;;;;;;17.77;10.45;;;13.50;99.90;;;;;;4958454;28;20344;-69
2021/10/25 10:16:29;;;;;;;15.98;10.20;;;13.30;99.90;;;;;;4935331;28;20079;-69
2021/10/25 10:19:02;;;;;;;17.30;9.75;;;13.40;99.90;;;;;;4948865;29;20042;-69
2021/10/25 10:22:01;;;;;;;15.73;10.70;;;13.60;99.90;;;;;;4942977;28;20035;-69
2021/10/25 10:24:37;;;;;;;;;;;13.60;99.90;;;;;;4944014;28;20122;-69
2021/10/25 10:27:07;;;;;;;15.82;10.32;;;13.50;99.90;;;;;;4928861;29;20350;-69
2021/10/25 10:29:41;;;;;;;20.67;12.43;;;13.40;99.90;;;;;;4951057;28;20050;-69
2021/10/25 10:32:27;;;;;;;17.52;11.02;;;13.50;99.90;;;;;;4962717;28;20090;-69
2021/10/25 10:35:16;;;;;;;16.88;9.38;;;13.70;99.90;;;;;;4959505;28;20462;-69
2021/10/25 10:38:06;;;;;;;14.15;9.82;;;14.10;99.90;;;;;;4895566;29;20503;-69
2021/10/25 10:41:00;;;;;;;13.38;8.77;;;14.50;99.90;;;;;;4889060;29;20059;-70
2021/10/25 10:44:04;;;;;;;21.20;9.23;;;14.70;99.90;;;;;;4893359;29;20067;-69
2021/10/25 10:46:43;;;;;;;17.48;9.73;;;14.70;99.90;;;;;;4896687;29;20188;-69
2021/10/25 10:49:31;;;;;;;15.25;10.13;;;14.90;99.90;;;;;;4894235;29;20168;-69
2021/10/25 10:52:12;;;;;;;15.10;8.95;;;15.00;99.90;;;;;;4911979;29;20048;-69
2021/10/25 10:54:57;;;;;;;14.73;9.25;;;15.00;99.90;;;;;;4910740;29;20404;-69
2021/10/25 11:00:25;;;;;;;14.00;8.48;;;14.80;99.90;;;;;;4909774;29;20052;-69
2021/10/25 11:02:53;;;;;;;14.38;8.77;;;15.30;99.90;;;;;;4911280;29;20155;-69
2021/10/25 11:05:43;;;;;;;14.98;9.07;;;15.60;99.90;;;;;;4909867;29;20056;-69
2021/10/25 11:08:16;;;;;;;14.10;8.90;;;15.80;99.90;;;;;;4910768;29;20575;-69
2021/10/25 11:10:46;;;;;;;13.30;8.77;;;16.30;99.90;;;;;;4910155;29;20055;-69
2021/10/25 11:13:21;;;;;;;16.00;8.98;;;16.70;99.90;;;;;;4909595;29;20056;-70
2021/10/25 11:16:12;;;;;;;15.23;9.27;;;17.00;99.90;;;;;;4943060;29;20039;-70
2021/10/25 11:18:48;;;;;;;14.20;9.40;;;16.60;99.90;;;;;;4960948;28;20047;-70
2021/10/25 11:21:26;;;;;;;15.43;8.45;;;16.50;99.90;;;;;;4954261;28;20058;-70
2021/10/25 11:23:55;;;;;;;13.18;8.95;;;16.50;99.90;;;;;;4953921;29;20091;-70
2021/10/25 11:26:24;;;;;;;12.15;8.10;;;16.50;99.90;;;;;;4938958;29;20043;-68
2021/10/25 11:29:06;;;;;;;13.80;8.48;;;16.40;99.90;;;;;;4951490;28;20055;-69
2021/10/25 11:31:43;;;;;;;14.93;8.18;;;16.60;99.90;;;;;;4968185;28;20070;-70
2021/10/25 11:34:27;;;;;;;16.17;9.10;;;16.80;99.90;;;;;;4952574;29;20558;-69
2021/10/25 11:37:09;;;;;;;11.57;7.53;;;17.20;99.90;;;;;;4941586;28;20067;-69
2021/10/25 11:42:22;;;;;;;13.27;8.73;;;17.40;99.90;;;;;;4953733;28;20126;-69
2021/10/25 11:44:52;;;;;;;17.65;8.63;;;17.50;99.90;;;;;;4954720;29;20047;-69
2021/10/25 11:47:27;;;;;;;12.82;8.30;;;17.90;99.90;;;;;;4952528;28;20502;-69
2021/10/25 11:50:05;;;;;;;13.05;7.80;;;18.30;99.90;;;;;;4954156;28;20043;-69
2021/10/25 11:52:42;;;;;;;14.13;7.70;;;18.50;99.90;;;;;;4952446;29;20416;-70
2021/10/25 11:55:12;;;;;;;12.45;7.57;;;18.80;99.90;;;;;;4953332;28;20139;-70
2021/10/25 11:57:56;;;;;;;11.98;7.85;;;19.30;99.90;;;;;;4951343;28;20126;-70
2021/10/25 12:00:27;;;;;;;11.65;6.90;;;19.60;99.90;;;;;;4954204;28;20055;-70
2021/10/25 12:03:15;;;;;;;11.52;7.65;;;19.90;99.90;;;;;;4938533;29;20075;-70
2021/10/25 12:05:43;;;;;;;11.40;6.63;;;20.30;99.90;;;;;;4953320;28;20052;-70
2021/10/25 12:08:13;;;;;;;11.98;7.85;;;20.50;99.90;;;;;;4948105;29;20051;-71
2021/10/25 12:10:43;;;;;;;15.27;7.13;;;21.00;99.90;;;;;;4944523;28;20047;-70
2021/10/25 12:13:11;;;;;;;9.90;6.63;;;22.50;99.90;;;;;;4952501;28;20469;-70
2021/10/25 12:15:57;;;;;;;9.05;6.47;;;23.80;99.90;;;;;;4954345;29;20129;-71
2021/10/25 12:18:27;;;;;;;12.38;6.95;;;24.70;99.90;;;;;;4952693;28;20126;-70
2021/10/25 12:20:55;;;;;;;10.90;6.60;;;25.00;99.90;;;;;;4953427;29;20042;-69
2021/10/25 12:23:28;;;;;;;10.52;6.47;;;25.60;99.90;;;;;;4951481;29;20693;-69
2021/10/25 12:26:03;;;;;;;12.90;7.00;;;25.70;98.30;;;;;;4954332;28;20054;-69
2021/10/25 12:28:34;;;;;;;9.10;5.78;;;26.20;96.80;;;;;;4952904;28;20089;-70
2021/10/25 12:31:08;;;;;;;10.45;6.40;;;25.20;96.30;;;;;;4948233;28;20059;-69
2021/10/25 12:33:38;;;;;;;7.57;5.65;;;24.10;97.00;;;;;;4947814;28;20156;-69
2021/10/25 12:36:14;;;;;;;10.13;5.70;;;23.90;97.50;;;;;;4955453;28;20062;-70
2021/10/25 12:38:43;;;;;;;11.77;6.55;;;24.20;97.30;;;;;;4952237;28;20124;-70
2021/10/25 12:41:11;;;;;;;17.00;11.30;;;24.00;96.90;;;;;;4952272;29;20085;-70
2021/10/25 12:43:41;;;;;;;11.70;6.88;;;23.20;97.60;;;;;;4952481;29;20043;-69
2021/10/25 12:46:13;;;;;;;9.23;5.90;;;22.80;98.20;;;;;;4953302;29;20059;-69
2021/10/25 12:48:44;;;;;;;10.60;6.00;;;22.40;98.50;;;;;;4948238;28;20406;-68
2021/10/25 12:51:12;;;;;;;9.45;5.80;;;22.40;98.90;;;;;;4952709;29;20039;-70
2021/10/25 12:53:48;;;;;;;10.13;5.55;;;22.40;98.70;;;;;;4953659;28;20070;-69
2021/10/25 12:56:33;;;;;;;9.80;5.82;;;22.50;98.40;;;;;;4953145;28;20122;-70
2021/10/25 12:59:07;;;;;;;10.00;6.30;;;22.70;98.60;;;;;;4946238;29;20406;-69
2021/10/25 13:01:35;;;;;;;9.57;6.00;;;22.90;97.90;;;;;;4954531;28;20469;-70
2021/10/25 13:04:05;;;;;;;10.30;6.50;;;22.70;97.80;;;;;;4953081;29;20055;-70
2021/10/25 13:06:35;;;;;;;10.35;6.18;;;22.50;97.90;;;;;;4956714;28;20496;-69
2021/10/25 13:09:08;;;;;;;9.57;5.43;;;22.00;98.40;;;;;;4952551;28;20343;-69
2021/10/25 13:11:36;;;;;;;11.90;7.10;;;21.50;99.20;;;;;;4957175;28;20126;-69
2021/10/25 13:14:08;;;;;;;11.77;7.80;;;21.10;99.30;;;;;;4950161;29;20074;-69
2021/10/25 13:16:45;;;;;;;11.57;7.68;;;20.70;99.80;;;;;;4952469;28;20517;-69
2021/10/25 13:19:18;;;;;;;15.30;8.18;;;20.70;99.90;;;;;;4951320;28;20470;-70
2021/10/25 13:21:46;;;;;;;13.95;7.45;;;20.80;99.90;;;;;;4949793;29;20074;-70
2021/10/25 13:24:14;;;;;;;10.60;6.68;;;21.00;99.90;;;;;;4941533;29;20047;-70
2021/10/25 13:26:46;;;;;;;9.98;6.80;;;21.00;99.90;;;;;;4952899;28;20134;-70
2021/10/25 13:29:13;;;;;;;11.13;6.80;;;20.80;99.90;;;;;;4949678;28;20184;-70
2021/10/25 13:31:41;;;;;;;22.00;14.25;;;20.90;99.90;;;;;;4951386;29;20137;-69
2021/10/25 13:34:08;;;;;;;12.48;7.32;;;21.10;99.90;;;;;;4950833;28;20050;-69
2021/10/25 13:36:35;;;;;;;10.95;6.18;;;21.70;99.80;;;;;;4942957;29;20493;-69
2021/10/25 13:39:11;;;;;;;10.02;5.47;;;21.90;99.50;;;;;;4950593;28;20039;-69
2021/10/25 13:41:40;;;;;;;11.07;6.70;;;21.70;99.30;;;;;;4951711;28;20771;-69
2021/10/25 13:44:08;;;;;;;14.02;6.13;;;21.10;99.90;;;;;;4953275;28;20059;-68
2021/10/25 13:46:36;;;;;;;10.07;6.43;;;20.90;99.90;;;;;;4952974;29;20067;-68
2021/10/25 13:49:05;;;;;;;12.48;6.50;;;20.70;99.90;;;;;;4953045;29;20466;-68
2021/10/25 13:51:34;;;;;;;9.52;5.97;;;20.80;99.90;;;;;;4952924;28;20130;-68
2021/10/25 13:54:01;;;;;;;14.13;6.45;;;21.10;99.90;;;;;;4940094;28;20090;-70
2021/10/25 13:56:29;;;;;;;11.65;5.50;;;21.80;99.70;;;;;;4952372;29;20431;-69
2021/10/25 13:58:56;;;;;;;9.05;5.72;;;23.00;98.70;;;;;;4952765;28;20039;-68
2021/10/25 14:01:24;;;;;;;9.45;5.20;;;23.80;97.50;;;;;;4952763;28;20043;-69
2021/10/25 14:03:52;;;;;;;9.05;5.47;;;23.90;97.00;;;;;;4942274;29;20130;-69
2021/10/25 14:06:26;;;;;;;12.63;6.40;;;23.50;97.00;;;;;;4946501;28;20098;-69
2021/10/25 14:08:54;;;;;;;15.77;10.82;;;23.80;97.20;;;;;;4925162;29;20048;-69
2021/10/25 14:11:25;;;;;;;13.68;8.52;;;24.70;96.10;;;;;;4936482;28;20066;-69
2021/10/25 14:14:07;;;;;;;10.02;6.45;;;25.10;95.00;;;;;;4939825;28;20050;-69
2021/10/25 14:16:39;;;;;;;9.38;5.80;;;25.50;93.90;;;;;;4943771;28;20410;-69
2021/10/25 14:19:08;;;;;;;8.48;6.22;;;25.70;93.60;;;;;;4948692;29;20122;-70
2021/10/25 14:21:37;;;;;;;9.60;6.07;;;25.80;93.40;;;;;;4948841;28;20664;-70
2021/10/25 14:24:08;;;;;;;9.07;5.55;;;25.70;93.10;;;;;;4948400;29;20062;-70
2021/10/25 14:26:37;;;;;;;8.32;4.70;;;25.00;92.40;;;;;;4949327;28;20503;-70
2021/10/25 14:29:05;;;;;;;8.23;4.20;;;24.90;91.60;;;;;;4948718;28;20066;-71
2021/10/25 14:31:33;;;;;;;6.50;4.18;;;24.40;91.70;;;;;;4947935;28;20043;-70
2021/10/25 14:34:01;;;;;;;8.73;4.30;;;24.20;92.20;;;;;;4952601;28;20359;-69
2021/10/25 14:36:28;;;;;;;7.38;4.40;;;24.10;92.30;;;;;;4948780;28;20047;-70
2021/10/25 14:39:17;;;;;;;8.15;4.10;;;25.20;91.50;;;;;;4948205;28;20059;-69
2021/10/25 14:44:28;;;;;;;10.32;4.70;;;25.30;91.70;;;;;;4946654;28;20054;-69
2021/10/25 14:57:13;;;;;;;7.47;5.32;;;20.90;96.20;;;;;;4952153;28;20525;-69
2021/10/25 14:59:41;;;;;;;8.85;5.47;;;20.20;97.40;;;;;;4952347;28;20049;-69
2021/10/25 15:02:09;;;;;;;8.13;5.07;;;20.00;98.30;;;;;;4949114;28;20047;-68
2021/10/25 15:04:37;;;;;;;10.82;5.32;;;21.00;97.90;;;;;;4951000;28;20050;-68
2021/10/25 15:07:05;;;;;;;11.70;7.82;;;21.60;97.00;;;;;;4960069;28;20105;-70
2021/10/25 15:09:32;;;;;;;10.07;5.90;;;21.40;96.90;;;;;;4949978;29;20118;-69
2021/10/25 15:12:00;;;;;;;9.48;5.13;;;20.70;97.30;;;;;;4939764;29;20047;-68